Buoy 46787

sailwx.info

Track history (hours):
 
Tides and Currents Weather Stations Pressure Air Temp Water Temp Dewpoint Dewpoint Depression Visibility Wind Speed Wind Dir Waves Ship Positions

Drifting buoy 46787

Last reported at 2018-Jun-23 17:00 UTC. Time now 2018-Jun-23 17:42 UTC.
Position N 44°14' W 131°46'.

Water temperature 14.2 ° C

Date/timePositionNaut miles runAvg speedWind from/ knotsBaromVisibWave heightAir tempDewpointWater temp
2018-Jun-23 17:00N 44°14' W 131°46'0 0.0 14.2
2018-Jun-23 16:00N 44°14' W 131°46'1 0.5 14.2
2018-Jun-23 14:00N 44°15' W 131°45'0 0.0 14.2
2018-Jun-23 13:00N 44°15' W 131°45'2 1.8 14.2
2018-Jun-23 12:00N 44°16' W 131°47'0 0.0 14.2
2018-Jun-23 07:00N 44°16' W 131°47'1 1.0 14.2
2018-Jun-23 06:00N 44°15' W 131°46'0 0.0 14.2
2018-Jun-23 05:00N 44°15' W 131°46'1 0.9 14.2
2018-Jun-23 04:00N 44°15' W 131°45'0 0.4 14.2
2018-Jun-23 03:00N 44°15' W 131°46'1 0.9 14.2
2018-Jun-23 02:00N 44°15' W 131°44'0 0.4 14.3
2018-Jun-23 01:00N 44°15' W 131°44'0 0.0 14.3
2018-Jun-23 00:00N 44°15' W 131°44'1 0.5 14.3
2018-Jun-22 22:00N 44°16' W 131°43'2 0.7 14.2
2018-Jun-22 19:00N 44°17' W 131°41'1 0.7 14.2
2018-Jun-22 18:00N 44°18' W 131°41'0 0.4 14.2
2018-Jun-22 17:00N 44°18' W 131°41'1 1.3 14.1
2018-Jun-22 16:00N 44°18' W 131°43'0 0.0 14.1
2018-Jun-22 15:00N 44°18' W 131°43'1 0.6 14.0
2018-Jun-22 14:00N 44°17' W 131°43'1 0.7 14.0
2018-Jun-22 13:00N 44°17' W 131°43'0 0.0 14.0
2018-Jun-22 12:00N 44°17' W 131°43'0 0.0 14.0
2018-Jun-22 06:00N 44°17' W 131°43'0 0.0 14.1
2018-Jun-22 05:00N 44°17' W 131°43'0 0.0 14.2
2018-Jun-22 04:00N 44°17' W 131°43'0 0.4 14.3
2018-Jun-22 03:00N 44°17' W 131°44'0 0.0 14.4
2018-Jun-22 02:00N 44°17' W 131°44'0 0.0 14.6
2018-Jun-22 01:00N 44°17' W 131°44'0 0.4 14.7
2018-Jun-22 00:00N 44°17' W 131°44'0 0.0 14.8
2018-Jun-21 23:00N 44°17' W 131°44'0 0.0 14.8
2018-Jun-21 22:00N 44°17' W 131°44'1 0.5 14.5
2018-Jun-21 19:00N 44°16' W 131°46'1 0.5 14.1
2018-Jun-21 17:00N 44°16' W 131°47'0 0.0 13.9
2018-Jun-21 15:00N 44°16' W 131°47'0 0.0 13.8
2018-Jun-21 14:00N 44°16' W 131°47'1 0.9 13.8
2018-Jun-21 13:00N 44°16' W 131°46'1 0.6 13.8
2018-Jun-21 12:00N 44°16' W 131°46'1 1.5 13.8
2018-Jun-21 11:00N 44°17' W 131°45'0 0.0 13.8
2018-Jun-21 07:00N 44°17' W 131°45'0 0.4 13.9
2018-Jun-21 06:00N 44°17' W 131°46'1 0.6 13.9
2018-Jun-21 05:00N 44°18' W 131°46'0 0.0 13.9
2018-Jun-21 04:00N 44°18' W 131°46'0 0.4 13.9
2018-Jun-21 03:00N 44°18' W 131°46'0 0.0 13.9
2018-Jun-21 02:00N 44°18' W 131°46'0 0.0 13.9
2018-Jun-21 01:00N 44°18' W 131°46'1 0.6 14.0
2018-Jun-21 00:00N 44°17' W 131°46'1 0.6 13.9
2018-Jun-20 23:00N 44°18' W 131°46'0 0.0 13.9
2018-Jun-20 22:00N 44°18' W 131°46'0 0.1 13.9
2018-Jun-20 19:00N 44°18' W 131°46'1 1.3 13.7
2018-Jun-20 18:00N 44°19' W 131°46'0 0.4 13.6
2018-Jun-20 17:00N 44°19' W 131°46'0 0.4 13.6
2018-Jun-20 16:00N 44°19' W 131°46'1 0.7 13.5
2018-Jun-20 15:00N 44°20' W 131°46'0 0.0 13.5
2018-Jun-20 14:00N 44°20' W 131°46'0 0.0 13.6
2018-Jun-20 13:00N 44°20' W 131°46'0 0.4 13.6
2018-Jun-20 12:00N 44°20' W 131°46'1 1.0 13.6
2018-Jun-20 11:00N 44°20' W 131°45'0 0.0 13.6
2018-Jun-20 06:00N 44°20' W 131°45'0 0.0 13.7
2018-Jun-20 05:00N 44°20' W 131°45'1 0.7 13.7
2018-Jun-20 04:00N 44°21' W 131°46'0 0.0 13.8
2018-Jun-20 03:00N 44°21' W 131°46'0 0.4 13.8
2018-Jun-20 02:00N 44°21' W 131°45'0 0.0 13.8
2018-Jun-20 01:00N 44°21' W 131°45'1 0.7 13.8
2018-Jun-20 00:00N 44°20' W 131°44'1 1.5 13.8
2018-Jun-19 23:00N 44°22' W 131°43'0 0.0 13.8
2018-Jun-19 22:00N 44°22' W 131°43'0 0.2 13.8
2018-Jun-19 20:00N 44°22' W 131°44'1 0.7 13.6
2018-Jun-19 19:00N 44°22' W 131°43'1 0.7 13.6
2018-Jun-19 18:00N 44°23' W 131°44'0 0.1 13.5
2018-Jun-19 15:00N 44°23' W 131°44'0 0.0 13.4
2018-Jun-19 14:00N 44°23' W 131°44'1 0.6 13.4
2018-Jun-19 13:00N 44°23' W 131°44'1 1.3 13.4
2018-Jun-19 12:00N 44°23' W 131°43'1 1.4 13.4
2018-Jun-19 11:00N 44°23' W 131°44'2 0.4 13.4
2018-Jun-19 06:00N 44°24' W 131°42'1 0.7 13.4
2018-Jun-19 05:00N 44°25' W 131°43'1 0.6 13.4
2018-Jun-19 04:00N 44°25' W 131°43'0 0.0 13.5
2018-Jun-19 03:00N 44°25' W 131°43'0 0.0 13.6
2018-Jun-19 02:00N 44°25' W 131°43'0 0.0 13.6
2018-Jun-19 01:00N 44°25' W 131°43'1 0.6 13.6
2018-Jun-19 00:00N 44°26' W 131°43'0 0.0 13.5
2018-Jun-18 23:00N 44°26' W 131°43'0 0.0 13.5
2018-Jun-18 20:00N 44°26' W 131°43'2 1.2 13.3
2018-Jun-18 18:00N 44°28' W 131°43'1 0.6 13.2
2018-Jun-18 17:00N 44°29' W 131°43'0 0.0 13.2
2018-Jun-18 16:00N 44°29' W 131°43'0 0.0 13.1
2018-Jun-18 15:00N 44°29' W 131°43'1 0.6 13.2
2018-Jun-18 14:00N 44°28' W 131°43'0 0.4 13.2
2018-Jun-18 13:00N 44°28' W 131°43'2 1.9 13.2
2018-Jun-18 12:00N 44°30' W 131°43'1 1.2 13.2
2018-Jun-18 11:00N 44°29' W 131°43'1 0.3 13.2
2018-Jun-18 07:00N 44°30' W 131°43'1 0.9 13.1
2018-Jun-18 06:00N 44°30' W 131°44'1 0.7 13.1
2018-Jun-18 05:00N 44°31' W 131°44'1 0.6 13.1
2018-Jun-18 04:00N 44°31' W 131°44'1 0.7 13.0
2018-Jun-18 03:00N 44°31' W 131°44'1 0.7 13.0
2018-Jun-18 02:00N 44°31' W 131°44'1 0.6 13.0
2018-Jun-18 01:00N 44°31' W 131°44'1 0.6 13.0
2018-Jun-18 00:00N 44°31' W 131°44'1 0.7 13.0
2018-Jun-17 23:00N 44°32' W 131°43'1 1.3 13.0
2018-Jun-17 22:00N 44°33' W 131°44'0 0.0 12.9
2018-Jun-17 21:00N 44°33' W 131°44'0 0.0 12.9
2018-Jun-17 19:00N 44°33' W 131°44'0 0.0 12.8
2018-Jun-17 18:00N 44°33' W 131°44'1 1.2 12.8
2018-Jun-17 17:00N 44°34' W 131°44'0 0.0 12.8
2018-Jun-17 16:00N 44°34' W 131°44'1 0.3 12.8
2018-Jun-17 14:00N 44°35' W 131°44'0 0.0 12.8
2018-Jun-17 13:00N 44°35' W 131°44'1 1.2 12.8
2018-Jun-17 12:00N 44°36' W 131°44'1 0.7 12.8
2018-Jun-17 11:00N 44°35' W 131°44'1 0.1 12.8
2018-Jun-17 06:00N 44°36' W 131°44'1 1.2 12.8
2018-Jun-17 05:00N 44°37' W 131°44'0 0.4 12.8
2018-Jun-17 04:00N 44°37' W 131°44'0 0.4 12.8
2018-Jun-17 03:00N 44°37' W 131°44'0 0.0 12.8
2018-Jun-17 02:00N 44°37' W 131°44'0 0.0 12.9
2018-Jun-17 01:00N 44°37' W 131°44'1 1.4 12.9
2018-Jun-17 00:00N 44°38' W 131°46'1 1.4 12.8
2018-Jun-16 23:00N 44°38' W 131°44'1 0.6 12.8
2018-Jun-16 22:00N 44°39' W 131°44'0 0.0 12.8
2018-Jun-16 21:00N 44°39' W 131°44'1 0.4 12.8
2018-Jun-16 19:00N 44°40' W 131°44'1 0.6 12.8
2018-Jun-16 17:00N 44°41' W 131°44'1 0.4 12.8
2018-Jun-16 15:00N 44°41' W 131°43'1 0.6 12.8
2018-Jun-16 14:00N 44°42' W 131°43'1 0.7 12.8
2018-Jun-16 13:00N 44°43' W 131°44'2 1.8 12.8
2018-Jun-16 12:00N 44°44' W 131°44'0 0.0 12.8
2018-Jun-16 11:00N 44°44' W 131°44'0 0.0 12.8
2018-Jun-16 07:00N 44°44' W 131°44'0 0.0 12.8
2018-Jun-16 06:00N 44°44' W 131°44'0 0.0 12.8
2018-Jun-16 05:00N 44°44' W 131°44'1 0.7 12.8
2018-Jun-16 04:00N 44°45' W 131°43'0 0.4 12.8
2018-Jun-16 03:00N 44°45' W 131°43'1 1.0 12.9
2018-Jun-16 02:00N 44°46' W 131°41'0 0.0 12.9
2018-Jun-16 01:00N 44°46' W 131°41'0 0.0 12.9
2018-Jun-16 00:00N 44°46' W 131°41'1 0.6 12.9
2018-Jun-15 23:00N 44°46' W 131°41'2 1.8 12.9
2018-Jun-15 22:00N 44°48' W 131°41'0 0.0 12.9
2018-Jun-15 21:00N 44°48' W 131°41'1 0.4 12.9
2018-Jun-15 19:00N 44°49' W 131°42'2 1.8 12.9
2018-Jun-15 18:00N 44°49' W 131°44'1 1.0 12.8
2018-Jun-15 17:00N 44°50' W 131°43'0 0.0 12.8
2018-Jun-15 16:00N 44°50' W 131°43'0 0.0 12.8
2018-Jun-15 15:00N 44°50' W 131°43'1 0.7 12.8
2018-Jun-15 14:00N 44°49' W 131°44'0 0.4 12.9
2018-Jun-15 13:00N 44°49' W 131°43'2 2.0 12.8
2018-Jun-15 12:00N 44°51' W 131°42'2 2.4 12.8
2018-Jun-15 11:00N 44°52' W 131°45'2 0.4 12.8
2018-Jun-15 06:00N 44°52' W 131°42'0 0.0 12.8
2018-Jun-15 05:00N 44°52' W 131°42'1 1.0 12.8
2018-Jun-15 04:00N 44°52' W 131°43'0 0.0 12.8
2018-Jun-15 03:00N 44°52' W 131°43'0 0.0 12.8
2018-Jun-15 02:00N 44°52' W 131°43'0 0.2 12.8
2018-Jun-15 00:00N 44°52' W 131°44'1 0.7 12.8
2018-Jun-14 23:00N 44°53' W 131°44'0 0.0 12.8
2018-Jun-14 22:00N 44°53' W 131°44'1 0.4 12.8
2018-Jun-14 20:00N 44°53' W 131°46'1 0.4 12.8
2018-Jun-14 18:00N 44°53' W 131°45'1 0.5 12.8
2018-Jun-14 16:00N 44°54' W 131°46'1 0.3 12.8
2018-Jun-14 14:00N 44°55' W 131°46'1 0.7 12.7
2018-Jun-14 13:00N 44°55' W 131°47'0 0.0 12.7
2018-Jun-14 12:00N 44°55' W 131°47'2 0.5 12.7
2018-Jun-14 07:00N 44°56' W 131°50'0 0.0 12.8
2018-Jun-14 06:00N 44°56' W 131°50'0 0.4 12.8
2018-Jun-14 05:00N 44°56' W 131°50'0 0.4 12.8
2018-Jun-14 04:00N 44°56' W 131°50'0 0.0 12.8
2018-Jun-14 03:00N 44°56' W 131°50'0 0.0 12.8
2018-Jun-14 02:00N 44°56' W 131°50'1 1.0 12.8
2018-Jun-14 01:00N 44°57' W 131°51'0 0.0 12.8
2018-Jun-14 00:00N 44°57' W 131°51'1 0.7 12.8
2018-Jun-13 23:00N 44°58' W 131°52'0 0.0 12.8
2018-Jun-13 22:00N 44°58' W 131°52'1 0.6 12.8
2018-Jun-13 20:00N 44°59' W 131°52'0 0.4 12.8
2018-Jun-13 19:00N 44°59' W 131°53'0 0.0 12.8
2018-Jun-13 18:00N 44°59' W 131°53'2 1.8 12.8
2018-Jun-13 17:00N 44°59' W 131°55'   12.8
Track history (hours):
 
Tides and Currents Weather Stations Pressure Air Temp Water Temp Dewpoint Dewpoint Depression Visibility Wind Speed Wind Dir Waves Ship Positions

Drifting buoy 46787

Last reported at 2018-Jun-23 17:00 UTC. Time now 2018-Jun-23 17:42 UTC.
Position N 44°14' W 131°46'.

Water temperature 14.2 ° C

Date/timePositionNaut miles runAvg speedWind from/ knotsBaromVisibWave heightAir tempDewpointWater temp
2018-Jun-23 17:00N 44°14' W 131°46'0 0.0 14.2
2018-Jun-23 16:00N 44°14' W 131°46'1 0.5 14.2
2018-Jun-23 14:00N 44°15' W 131°45'0 0.0 14.2
2018-Jun-23 13:00N 44°15' W 131°45'2 1.8 14.2
2018-Jun-23 12:00N 44°16' W 131°47'0 0.0 14.2
2018-Jun-23 07:00N 44°16' W 131°47'1 1.0 14.2
2018-Jun-23 06:00N 44°15' W 131°46'0 0.0 14.2
2018-Jun-23 05:00N 44°15' W 131°46'1 0.9 14.2
2018-Jun-23 04:00N 44°15' W 131°45'0 0.4 14.2
2018-Jun-23 03:00N 44°15' W 131°46'1 0.9 14.2
2018-Jun-23 02:00N 44°15' W 131°44'0 0.4 14.3
2018-Jun-23 01:00N 44°15' W 131°44'0 0.0 14.3
2018-Jun-23 00:00N 44°15' W 131°44'1 0.5 14.3
2018-Jun-22 22:00N 44°16' W 131°43'2 0.7 14.2
2018-Jun-22 19:00N 44°17' W 131°41'1 0.7 14.2
2018-Jun-22 18:00N 44°18' W 131°41'0 0.4 14.2
2018-Jun-22 17:00N 44°18' W 131°41'1 1.3 14.1
2018-Jun-22 16:00N 44°18' W 131°43'0 0.0 14.1
2018-Jun-22 15:00N 44°18' W 131°43'1 0.6 14.0
2018-Jun-22 14:00N 44°17' W 131°43'1 0.7 14.0
2018-Jun-22 13:00N 44°17' W 131°43'0 0.0 14.0
2018-Jun-22 12:00N 44°17' W 131°43'0 0.0 14.0
2018-Jun-22 06:00N 44°17' W 131°43'0 0.0 14.1
2018-Jun-22 05:00N 44°17' W 131°43'0 0.0 14.2
2018-Jun-22 04:00N 44°17' W 131°43'0 0.4 14.3
2018-Jun-22 03:00N 44°17' W 131°44'0 0.0 14.4
2018-Jun-22 02:00N 44°17' W 131°44'0 0.0 14.6
2018-Jun-22 01:00N 44°17' W 131°44'0 0.4 14.7
2018-Jun-22 00:00N 44°17' W 131°44'0 0.0 14.8
2018-Jun-21 23:00N 44°17' W 131°44'0 0.0 14.8
2018-Jun-21 22:00N 44°17' W 131°44'1 0.5 14.5
2018-Jun-21 19:00N 44°16' W 131°46'1 0.5 14.1
2018-Jun-21 17:00N 44°16' W 131°47'0 0.0 13.9
2018-Jun-21 15:00N 44°16' W 131°47'0 0.0 13.8
2018-Jun-21 14:00N 44°16' W 131°47'1 0.9 13.8
2018-Jun-21 13:00N 44°16' W 131°46'1 0.6 13.8
2018-Jun-21 12:00N 44°16' W 131°46'1 1.5 13.8
2018-Jun-21 11:00N 44°17' W 131°45'0 0.0 13.8
2018-Jun-21 07:00N 44°17' W 131°45'0 0.4 13.9
2018-Jun-21 06:00N 44°17' W 131°46'1 0.6 13.9
2018-Jun-21 05:00N 44°18' W 131°46'0 0.0 13.9
2018-Jun-21 04:00N 44°18' W 131°46'0 0.4 13.9
2018-Jun-21 03:00N 44°18' W 131°46'0 0.0 13.9
2018-Jun-21 02:00N 44°18' W 131°46'0 0.0 13.9
2018-Jun-21 01:00N 44°18' W 131°46'1 0.6 14.0
2018-Jun-21 00:00N 44°17' W 131°46'1 0.6 13.9
2018-Jun-20 23:00N 44°18' W 131°46'0 0.0 13.9
2018-Jun-20 22:00N 44°18' W 131°46'0 0.1 13.9
2018-Jun-20 19:00N 44°18' W 131°46'1 1.3 13.7
2018-Jun-20 18:00N 44°19' W 131°46'0 0.4 13.6
2018-Jun-20 17:00N 44°19' W 131°46'0 0.4 13.6
2018-Jun-20 16:00N 44°19' W 131°46'1 0.7 13.5
2018-Jun-20 15:00N 44°20' W 131°46'0 0.0 13.5
2018-Jun-20 14:00N 44°20' W 131°46'0 0.0 13.6
2018-Jun-20 13:00N 44°20' W 131°46'0 0.4 13.6
2018-Jun-20 12:00N 44°20' W 131°46'1 1.0 13.6
2018-Jun-20 11:00N 44°20' W 131°45'0 0.0 13.6
2018-Jun-20 06:00N 44°20' W 131°45'0 0.0 13.7
2018-Jun-20 05:00N 44°20' W 131°45'1 0.7 13.7
2018-Jun-20 04:00N 44°21' W 131°46'0 0.0 13.8
2018-Jun-20 03:00N 44°21' W 131°46'0 0.4 13.8
2018-Jun-20 02:00N 44°21' W 131°45'0 0.0 13.8
2018-Jun-20 01:00N 44°21' W 131°45'1 0.7 13.8
2018-Jun-20 00:00N 44°20' W 131°44'1 1.5 13.8
2018-Jun-19 23:00N 44°22' W 131°43'0 0.0 13.8
2018-Jun-19 22:00N 44°22' W 131°43'0 0.2 13.8
2018-Jun-19 20:00N 44°22' W 131°44'1 0.7 13.6
2018-Jun-19 19:00N 44°22' W 131°43'1 0.7 13.6
2018-Jun-19 18:00N 44°23' W 131°44'0 0.1 13.5
2018-Jun-19 15:00N 44°23' W 131°44'0 0.0 13.4
2018-Jun-19 14:00N 44°23' W 131°44'1 0.6 13.4
2018-Jun-19 13:00N 44°23' W 131°44'1 1.3 13.4
2018-Jun-19 12:00N 44°23' W 131°43'1 1.4 13.4
2018-Jun-19 11:00N 44°23' W 131°44'2 0.4 13.4
2018-Jun-19 06:00N 44°24' W 131°42'1 0.7 13.4
2018-Jun-19 05:00N 44°25' W 131°43'1 0.6 13.4
2018-Jun-19 04:00N 44°25' W 131°43'0 0.0 13.5
2018-Jun-19 03:00N 44°25' W 131°43'0 0.0 13.6
2018-Jun-19 02:00N 44°25' W 131°43'0 0.0 13.6
2018-Jun-19 01:00N 44°25' W 131°43'1 0.6 13.6
2018-Jun-19 00:00N 44°26' W 131°43'0 0.0 13.5
2018-Jun-18 23:00N 44°26' W 131°43'0 0.0 13.5
2018-Jun-18 20:00N 44°26' W 131°43'2 1.2 13.3
2018-Jun-18 18:00N 44°28' W 131°43'1 0.6 13.2
2018-Jun-18 17:00N 44°29' W 131°43'0 0.0 13.2
2018-Jun-18 16:00N 44°29' W 131°43'0 0.0 13.1
2018-Jun-18 15:00N 44°29' W 131°43'1 0.6 13.2
2018-Jun-18 14:00N 44°28' W 131°43'0 0.4 13.2
2018-Jun-18 13:00N 44°28' W 131°43'2 1.9 13.2
2018-Jun-18 12:00N 44°30' W 131°43'1 1.2 13.2
2018-Jun-18 11:00N 44°29' W 131°43'1 0.3 13.2
2018-Jun-18 07:00N 44°30' W 131°43'1 0.9 13.1
2018-Jun-18 06:00N 44°30' W 131°44'1 0.7 13.1
2018-Jun-18 05:00N 44°31' W 131°44'1 0.6 13.1
2018-Jun-18 04:00N 44°31' W 131°44'1 0.7 13.0
2018-Jun-18 03:00N 44°31' W 131°44'1 0.7 13.0
2018-Jun-18 02:00N 44°31' W 131°44'1 0.6 13.0
2018-Jun-18 01:00N 44°31' W 131°44'1 0.6 13.0
2018-Jun-18 00:00N 44°31' W 131°44'1 0.7 13.0
2018-Jun-17 23:00N 44°32' W 131°43'1 1.3 13.0
2018-Jun-17 22:00N 44°33' W 131°44'0 0.0 12.9
2018-Jun-17 21:00N 44°33' W 131°44'0 0.0 12.9
2018-Jun-17 19:00N 44°33' W 131°44'0 0.0 12.8
2018-Jun-17 18:00N 44°33' W 131°44'1 1.2 12.8
2018-Jun-17 17:00N 44°34' W 131°44'0 0.0 12.8
2018-Jun-17 16:00N 44°34' W 131°44'1 0.3 12.8
2018-Jun-17 14:00N 44°35' W 131°44'0 0.0 12.8
2018-Jun-17 13:00N 44°35' W 131°44'1 1.2 12.8
2018-Jun-17 12:00N 44°36' W 131°44'1 0.7 12.8
2018-Jun-17 11:00N 44°35' W 131°44'1 0.1 12.8
2018-Jun-17 06:00N 44°36' W 131°44'1 1.2 12.8
2018-Jun-17 05:00N 44°37' W 131°44'0 0.4 12.8
2018-Jun-17 04:00N 44°37' W 131°44'0 0.4 12.8
2018-Jun-17 03:00N 44°37' W 131°44'0 0.0 12.8
2018-Jun-17 02:00N 44°37' W 131°44'0 0.0 12.9
2018-Jun-17 01:00N 44°37' W 131°44'1 1.4 12.9
2018-Jun-17 00:00N 44°38' W 131°46'1 1.4 12.8
2018-Jun-16 23:00N 44°38' W 131°44'1 0.6 12.8
2018-Jun-16 22:00N 44°39' W 131°44'0 0.0 12.8
2018-Jun-16 21:00N 44°39' W 131°44'1 0.4 12.8
2018-Jun-16 19:00N 44°40' W 131°44'1 0.6 12.8
2018-Jun-16 17:00N 44°41' W 131°44'1 0.4 12.8
2018-Jun-16 15:00N 44°41' W 131°43'1 0.6 12.8
2018-Jun-16 14:00N 44°42' W 131°43'1 0.7 12.8
2018-Jun-16 13:00N 44°43' W 131°44'2 1.8 12.8
2018-Jun-16 12:00N 44°44' W 131°44'0 0.0 12.8
2018-Jun-16 11:00N 44°44' W 131°44'0 0.0 12.8
2018-Jun-16 07:00N 44°44' W 131°44'0 0.0 12.8
2018-Jun-16 06:00N 44°44' W 131°44'0 0.0 12.8
2018-Jun-16 05:00N 44°44' W 131°44'1 0.7 12.8
2018-Jun-16 04:00N 44°45' W 131°43'0 0.4 12.8
2018-Jun-16 03:00N 44°45' W 131°43'1 1.0 12.9
2018-Jun-16 02:00N 44°46' W 131°41'0 0.0 12.9
2018-Jun-16 01:00N 44°46' W 131°41'0 0.0 12.9
2018-Jun-16 00:00N 44°46' W 131°41'1 0.6 12.9
2018-Jun-15 23:00N 44°46' W 131°41'2 1.8 12.9
2018-Jun-15 22:00N 44°48' W 131°41'0 0.0 12.9
2018-Jun-15 21:00N 44°48' W 131°41'1 0.4 12.9
2018-Jun-15 19:00N 44°49' W 131°42'2 1.8 12.9
2018-Jun-15 18:00N 44°49' W 131°44'1 1.0 12.8
2018-Jun-15 17:00N 44°50' W 131°43'0 0.0 12.8
2018-Jun-15 16:00N 44°50' W 131°43'0 0.0 12.8
2018-Jun-15 15:00N 44°50' W 131°43'1 0.7 12.8
2018-Jun-15 14:00N 44°49' W 131°44'0 0.4 12.9
2018-Jun-15 13:00N 44°49' W 131°43'2 2.0 12.8
2018-Jun-15 12:00N 44°51' W 131°42'2 2.4 12.8
2018-Jun-15 11:00N 44°52' W 131°45'2 0.4 12.8
2018-Jun-15 06:00N 44°52' W 131°42'0 0.0 12.8
2018-Jun-15 05:00N 44°52' W 131°42'1 1.0 12.8
2018-Jun-15 04:00N 44°52' W 131°43'0 0.0 12.8
2018-Jun-15 03:00N 44°52' W 131°43'0 0.0 12.8
2018-Jun-15 02:00N 44°52' W 131°43'0 0.2 12.8
2018-Jun-15 00:00N 44°52' W 131°44'1 0.7 12.8
2018-Jun-14 23:00N 44°53' W 131°44'0 0.0 12.8
2018-Jun-14 22:00N 44°53' W 131°44'1 0.4 12.8
2018-Jun-14 20:00N 44°53' W 131°46'1 0.4 12.8
2018-Jun-14 18:00N 44°53' W 131°45'1 0.5 12.8
2018-Jun-14 16:00N 44°54' W 131°46'1 0.3 12.8
2018-Jun-14 14:00N 44°55' W 131°46'1 0.7 12.7
2018-Jun-14 13:00N 44°55' W 131°47'0 0.0 12.7
2018-Jun-14 12:00N 44°55' W 131°47'2 0.5 12.7
2018-Jun-14 07:00N 44°56' W 131°50'0 0.0 12.8
2018-Jun-14 06:00N 44°56' W 131°50'0 0.4 12.8
2018-Jun-14 05:00N 44°56' W 131°50'0 0.4 12.8
2018-Jun-14 04:00N 44°56' W 131°50'0 0.0 12.8
2018-Jun-14 03:00N 44°56' W 131°50'0 0.0 12.8
2018-Jun-14 02:00N 44°56' W 131°50'1 1.0 12.8
2018-Jun-14 01:00N 44°57' W 131°51'0 0.0 12.8
2018-Jun-14 00:00N 44°57' W 131°51'1 0.7 12.8
2018-Jun-13 23:00N 44°58' W 131°52'0 0.0 12.8
2018-Jun-13 22:00N 44°58' W 131°52'1 0.6 12.8
2018-Jun-13 20:00N 44°59' W 131°52'0 0.4 12.8
2018-Jun-13 19:00N 44°59' W 131°53'0 0.0 12.8
2018-Jun-13 18:00N 44°59' W 131°53'2 1.8 12.8
2018-Jun-13 17:00N 44°59' W 131°55'   12.8

Dump ship's entire track history